createdAt,value
2023-10-10T00:02:22.165Z,3.60
2023-10-10T00:04:51.185Z,2.90
2023-10-10T00:07:20.305Z,3.90
2023-10-10T00:09:47.998Z,4.30
2023-10-10T00:12:28.107Z,3.90
2023-10-10T00:15:51.982Z,3.10
2023-10-10T00:18:44.917Z,3.50
2023-10-10T00:21:21.765Z,3.70
2023-10-10T00:23:49.119Z,4.00
2023-10-10T00:26:21.130Z,3.50
2023-10-10T00:28:55.747Z,4.00
2023-10-10T00:31:28.506Z,3.20
2023-10-10T00:33:56.699Z,3.20
2023-10-10T00:36:29.470Z,2.80
2023-10-10T00:39:17.208Z,3.90
2023-10-10T00:41:50.834Z,3.90
2023-10-10T00:44:19.067Z,3.70
2023-10-10T00:46:49.178Z,3.50
2023-10-10T00:49:18.452Z,3.50
2023-10-10T00:51:48.740Z,3.40
2023-10-10T00:54:23.029Z,3.50
2023-10-10T00:56:57.560Z,3.30
2023-10-10T00:59:44.065Z,3.00
2023-10-10T01:02:18.297Z,3.70
2023-10-10T01:04:54.923Z,3.50
2023-10-10T01:07:24.377Z,3.40
2023-10-10T01:09:58.786Z,3.40
2023-10-10T01:12:37.074Z,3.90
2023-10-10T01:15:10.095Z,3.40
2023-10-10T01:17:39.653Z,3.60
2023-10-10T01:20:31.000Z,3.30
2023-10-10T01:22:58.978Z,3.80
2023-10-10T01:25:29.295Z,3.60
2023-10-10T01:28:02.996Z,3.70
2023-10-10T01:33:37.760Z,4.00
2023-10-10T01:36:20.309Z,3.40
2023-10-10T01:39:01.151Z,3.50
2023-10-10T01:41:49.687Z,3.60
2023-10-10T01:44:19.983Z,3.50
2023-10-10T01:46:47.795Z,4.10
2023-10-10T01:49:21.025Z,3.50
2023-10-10T01:52:00.872Z,3.70
2023-10-10T01:54:42.269Z,3.60
2023-10-10T01:57:17.413Z,3.80
2023-10-10T01:59:45.378Z,3.90
2023-10-10T02:02:19.926Z,3.40
2023-10-10T02:04:49.139Z,3.70
2023-10-10T02:07:23.100Z,3.90
2023-10-10T02:10:00.675Z,3.70
2023-10-10T02:12:28.504Z,3.80
2023-10-10T02:14:55.969Z,4.50
2023-10-10T02:17:26.278Z,3.50
2023-10-10T02:20:20.927Z,4.80
2023-10-10T02:23:08.339Z,5.30
2023-10-10T02:25:36.316Z,4.00
2023-10-10T02:28:18.997Z,3.60
2023-10-10T02:30:50.699Z,4.40
2023-10-10T02:33:25.065Z,4.20
2023-10-10T02:35:56.390Z,3.90
2023-10-10T02:38:41.049Z,4.20
2023-10-10T02:41:22.436Z,4.00
2023-10-10T02:43:57.294Z,4.00
2023-10-10T02:46:40.308Z,4.50
2023-10-10T02:49:14.455Z,4.20
2023-10-10T02:51:49.632Z,5.00
2023-10-10T02:54:38.308Z,5.20
2023-10-10T02:57:25.487Z,4.40
2023-10-10T02:59:54.968Z,4.90
2023-10-10T03:02:30.071Z,4.40
2023-10-10T03:05:02.266Z,5.20
2023-10-10T03:07:30.906Z,5.40
2023-10-10T03:10:15.548Z,6.10
2023-10-10T03:12:43.274Z,4.10
2023-10-10T03:15:30.146Z,5.10
2023-10-10T03:18:09.675Z,5.30
2023-10-10T03:20:49.447Z,4.90
2023-10-10T03:23:17.098Z,5.10
2023-10-10T03:25:47.906Z,5.40
2023-10-10T03:28:28.134Z,5.00
2023-10-10T03:31:26.216Z,5.10
2023-10-10T03:34:26.492Z,4.60
2023-10-10T03:37:26.327Z,4.80
2023-10-10T03:40:17.145Z,4.30
2023-10-10T03:43:03.502Z,4.70
2023-10-10T03:45:49.829Z,5.10
2023-10-10T03:48:35.925Z,14.70
2023-10-10T03:51:22.168Z,4.40
2023-10-10T03:54:08.414Z,4.10
2023-10-10T03:56:54.464Z,5.00
2023-10-10T03:59:40.930Z,4.70
2023-10-10T04:02:27.318Z,4.20
2023-10-10T04:08:06.411Z,4.20
2023-10-10T04:10:52.680Z,5.00
2023-10-10T04:13:38.740Z,4.60
2023-10-10T04:16:27.825Z,4.90
2023-10-10T04:19:14.310Z,4.80
2023-10-10T04:22:00.620Z,4.40
2023-10-10T04:24:46.612Z,4.80
2023-10-10T04:27:32.709Z,4.30
2023-10-10T04:30:18.961Z,4.20
2023-10-10T04:33:04.990Z,4.60
2023-10-10T04:35:51.299Z,4.70
2023-10-10T04:38:54.132Z,4.10
2023-10-10T04:41:40.165Z,4.60
2023-10-10T04:44:26.510Z,4.60
2023-10-10T04:47:12.712Z,4.80
2023-10-10T04:49:58.922Z,5.30
2023-10-10T04:52:45.294Z,4.20
2023-10-10T04:55:31.487Z,3.90
2023-10-10T04:58:17.718Z,4.40
2023-10-10T05:01:04.077Z,4.90
2023-10-10T05:03:50.189Z,4.60
2023-10-10T05:06:36.584Z,4.20
2023-10-10T05:09:22.876Z,3.60
2023-10-10T05:12:08.962Z,4.30
2023-10-10T05:14:55.146Z,4.40
2023-10-10T05:17:41.315Z,4.00
2023-10-10T05:20:27.764Z,4.70
2023-10-10T05:23:14.003Z,4.50
2023-10-10T05:25:42.753Z,4.30
2023-10-10T05:28:12.150Z,4.40
2023-10-10T05:30:45.391Z,4.00
2023-10-10T05:33:14.128Z,4.20
2023-10-10T05:35:49.115Z,4.60
2023-10-10T05:38:21.237Z,4.70
2023-10-10T05:40:48.813Z,4.50
2023-10-10T05:43:27.399Z,4.30
2023-10-10T05:45:55.687Z,4.50
2023-10-10T05:48:23.448Z,5.10
2023-10-10T05:50:50.920Z,4.50
2023-10-10T05:53:18.629Z,5.00
2023-10-10T05:55:52.357Z,5.20
2023-10-10T05:58:22.465Z,4.80
2023-10-10T06:00:53.819Z,5.00
2023-10-10T06:03:22.784Z,4.10
2023-10-10T06:05:51.625Z,4.50
2023-10-10T06:08:19.176Z,5.70
2023-10-10T06:10:46.699Z,5.00
2023-10-10T06:13:14.112Z,5.30
2023-10-10T06:15:41.651Z,5.20
2023-10-10T06:18:15.506Z,4.80
2023-10-10T06:23:34.859Z,5.20
2023-10-10T06:26:03.708Z,5.10
2023-10-10T06:28:37.261Z,5.40
2023-10-10T06:31:11.869Z,5.60
2023-10-10T06:33:42.817Z,6.00
2023-10-10T06:36:40.105Z,5.20
2023-10-10T06:39:10.476Z,5.00
2023-10-10T06:41:40.570Z,5.30
2023-10-10T06:44:27.062Z,5.90
2023-10-10T06:46:56.973Z,5.10
2023-10-10T06:49:25.071Z,5.00
2023-10-10T06:51:56.817Z,6.00
2023-10-10T06:54:30.624Z,5.20
2023-10-10T06:57:01.262Z,5.40
2023-10-10T06:59:29.500Z,5.40
2023-10-10T07:02:16.980Z,5.90
2023-10-10T07:04:45.001Z,5.00
2023-10-10T07:07:14.951Z,5.90
2023-10-10T07:09:43.900Z,6.10
2023-10-10T07:12:12.230Z,5.80
2023-10-10T07:14:42.455Z,5.30
2023-10-10T07:17:13.607Z,6.40
2023-10-10T07:20:03.843Z,6.20
2023-10-10T07:22:35.739Z,5.60
2023-10-10T07:25:09.026Z,6.20
2023-10-10T07:27:41.147Z,6.10
2023-10-10T07:30:20.588Z,6.60
2023-10-10T07:32:52.320Z,5.70
2023-10-10T07:35:27.326Z,5.90
2023-10-10T07:38:01.165Z,6.90
2023-10-10T07:43:01.586Z,6.90
2023-10-10T07:45:36.002Z,5.90
2023-10-10T07:48:11.162Z,5.60
2023-10-10T07:50:57.976Z,6.10
2023-10-10T07:53:35.110Z,5.60
2023-10-10T07:56:06.504Z,6.40
2023-10-10T07:58:58.548Z,6.90
2023-10-10T08:01:28.900Z,6.10
2023-10-10T08:03:57.381Z,5.70
2023-10-10T08:06:28.976Z,5.70
2023-10-10T08:09:15.938Z,5.60
2023-10-10T08:11:47.701Z,5.90
2023-10-10T08:14:20.177Z,5.10
2023-10-10T08:16:51.684Z,4.50
2023-10-10T08:19:19.644Z,4.50
2023-10-10T08:21:51.144Z,4.30
2023-10-10T08:24:22.254Z,4.80
2023-10-10T08:26:54.268Z,5.70
2023-10-10T08:29:28.857Z,4.60
2023-10-10T08:31:59.563Z,4.90
2023-10-10T08:34:27.157Z,5.10
2023-10-10T08:37:04.489Z,4.90
2023-10-10T08:39:37.982Z,4.60
2023-10-10T08:42:07.069Z,4.20
2023-10-10T08:44:38.104Z,4.60
2023-10-10T08:47:17.513Z,4.60
2023-10-10T08:49:48.806Z,3.90
2023-10-10T08:52:18.591Z,4.10
2023-10-10T08:54:46.046Z,4.10
2023-10-10T08:57:13.833Z,3.60
2023-10-10T08:59:44.059Z,4.00
2023-10-10T09:02:17.887Z,4.50
2023-10-10T09:07:29.342Z,3.00
2023-10-10T09:10:06.272Z,2.50
2023-10-10T09:12:35.537Z,2.60
2023-10-10T09:15:14.865Z,2.20
2023-10-10T09:17:43.203Z,2.60
2023-10-10T09:20:19.478Z,2.30
2023-10-10T09:22:53.144Z,2.50
2023-10-10T09:25:21.402Z,2.20
2023-10-10T09:28:09.410Z,2.10
2023-10-10T09:30:46.354Z,1.80
2023-10-10T09:33:31.292Z,1.70
2023-10-10T09:36:21.300Z,1.90
2023-10-10T09:38:49.667Z,1.70
2023-10-10T09:41:27.713Z,2.20
2023-10-10T09:44:24.356Z,2.20
2023-10-10T09:47:08.909Z,2.10
2023-10-10T09:49:53.506Z,1.70
2023-10-10T09:52:43.621Z,1.90
2023-10-10T09:55:15.937Z,1.80
2023-10-10T09:58:17.348Z,2.10
2023-10-10T10:00:44.891Z,2.00
2023-10-10T10:03:25.959Z,2.00
2023-10-10T10:06:29.046Z,1.90
2023-10-10T10:09:20.853Z,2.30
2023-10-10T10:12:21.415Z,1.70
2023-10-10T10:15:03.739Z,1.80
2023-10-10T10:18:45.955Z,1.60
2023-10-10T10:21:31.924Z,1.70
2023-10-10T10:24:18.073Z,1.90
2023-10-10T10:26:46.241Z,1.90
2023-10-10T10:29:23.911Z,1.80
2023-10-10T10:31:53.348Z,1.70
2023-10-10T10:34:30.113Z,1.60
2023-10-10T10:37:04.595Z,2.10
2023-10-10T10:39:36.492Z,1.80
2023-10-10T10:42:13.651Z,1.50
2023-10-10T10:45:00.179Z,1.80
2023-10-10T10:47:39.405Z,1.70
2023-10-10T10:50:18.898Z,2.00
2023-10-10T10:52:57.859Z,1.90
2023-10-10T10:55:29.298Z,1.90
2023-10-10T10:58:19.576Z,1.90
2023-10-10T11:01:01.962Z,1.70
2023-10-10T11:03:36.911Z,2.10
2023-10-10T11:06:09.215Z,2.30
2023-10-10T11:09:07.110Z,2.10
2023-10-10T11:11:34.616Z,2.20
2023-10-10T11:14:26.590Z,2.00
2023-10-10T11:17:00.199Z,2.30
2023-10-10T11:19:30.026Z,2.30
2023-10-10T11:22:01.764Z,2.10
2023-10-10T11:24:32.934Z,1.90
2023-10-10T11:27:12.861Z,1.90
2023-10-10T11:29:47.263Z,1.60
2023-10-10T11:32:17.071Z,1.60
2023-10-10T11:34:47.958Z,1.40
2023-10-10T11:37:24.414Z,1.40
2023-10-10T11:39:59.370Z,1.60
2023-10-10T11:42:28.010Z,1.70
2023-10-10T11:45:02.919Z,1.40
2023-10-10T11:47:32.190Z,1.40
2023-10-10T11:50:06.765Z,1.50
2023-10-10T11:52:34.358Z,1.20
2023-10-10T11:55:01.857Z,1.90
2023-10-10T11:57:35.374Z,1.30
2023-10-10T12:00:24.299Z,1.30
2023-10-10T12:02:57.111Z,1.50
2023-10-10T12:05:31.272Z,1.60
2023-10-10T12:08:06.516Z,1.40
2023-10-10T12:10:53.493Z,1.30
2023-10-10T12:13:33.509Z,1.10
2023-10-10T12:16:13.116Z,1.40
2023-10-10T12:18:51.535Z,1.30
2023-10-10T12:21:23.301Z,1.60
2023-10-10T12:24:00.315Z,1.20
2023-10-10T12:26:37.447Z,1.30
2023-10-10T12:29:05.496Z,1.20
2023-10-10T12:31:35.680Z,1.00
2023-10-10T12:34:04.197Z,1.30
2023-10-10T12:36:33.881Z,1.30
2023-10-10T12:39:05.908Z,1.40
2023-10-10T12:41:47.680Z,1.30
2023-10-10T12:44:15.413Z,1.10
2023-10-10T12:46:42.927Z,1.30
2023-10-10T12:49:13.253Z,1.80
2023-10-10T12:51:45.904Z,1.20
2023-10-10T12:54:16.765Z,1.70
2023-10-10T12:56:55.949Z,1.60
2023-10-10T12:59:31.961Z,1.60
2023-10-10T13:02:04.391Z,1.40
2023-10-10T13:04:34.773Z,1.30
2023-10-10T13:07:05.535Z,1.20
2023-10-10T13:09:33.848Z,0.90
2023-10-10T13:12:04.977Z,1.20
2023-10-10T13:14:34.820Z,1.20
2023-10-10T13:17:31.114Z,1.30
2023-10-10T13:20:00.310Z,1.50
2023-10-10T13:22:31.017Z,1.40
2023-10-10T13:24:58.730Z,1.10
2023-10-10T13:27:26.779Z,1.30
2023-10-10T13:29:54.412Z,1.70
2023-10-10T13:32:22.133Z,1.50
2023-10-10T13:34:49.556Z,1.40
2023-10-10T13:37:17.079Z,1.20
2023-10-10T13:39:45.411Z,1.10
2023-10-10T13:42:15.843Z,1.30
2023-10-10T13:44:44.257Z,1.20
2023-10-10T13:47:12.054Z,1.20
2023-10-10T13:49:45.900Z,1.10
2023-10-10T13:52:14.514Z,1.30
2023-10-10T13:54:42.088Z,1.40
2023-10-10T13:57:11.263Z,1.20
2023-10-10T13:59:39.134Z,1.10
2023-10-10T14:02:12.082Z,1.40
2023-10-10T14:04:50.343Z,1.40
2023-10-10T14:07:18.658Z,1.20
2023-10-10T14:12:21.948Z,0.90
2023-10-10T14:14:49.835Z,1.20
2023-10-10T14:17:17.440Z,1.10
2023-10-10T14:19:44.914Z,1.30
2023-10-10T14:22:13.417Z,1.10
2023-10-10T14:24:41.363Z,1.20
2023-10-10T14:27:08.929Z,1.20
2023-10-10T14:29:43.391Z,1.20
2023-10-10T14:32:22.776Z,1.50
2023-10-10T14:34:51.877Z,1.10
2023-10-10T14:37:36.269Z,1.10
2023-10-10T14:40:10.899Z,1.20
2023-10-10T14:42:43.378Z,1.50
2023-10-10T14:45:13.998Z,0.90
2023-10-10T14:47:45.328Z,1.20
2023-10-10T14:50:14.643Z,1.10
2023-10-10T14:52:48.786Z,1.50
2023-10-10T14:55:26.123Z,1.60
2023-10-10T14:57:57.106Z,1.00
2023-10-10T15:00:25.665Z,1.40
2023-10-10T15:02:55.154Z,1.10
2023-10-10T15:05:25.303Z,1.00
2023-10-10T15:07:54.356Z,1.60
2023-10-10T15:10:25.107Z,1.10
2023-10-10T15:12:54.571Z,1.70
2023-10-10T15:15:24.687Z,1.30
2023-10-10T15:17:52.994Z,1.70
2023-10-10T15:20:20.690Z,1.10
2023-10-10T15:22:48.184Z,1.30
2023-10-10T15:25:16.661Z,1.40
2023-10-10T15:27:44.400Z,1.40
2023-10-10T15:30:12.104Z,1.20
2023-10-10T15:32:49.027Z,1.10
2023-10-10T15:35:18.556Z,1.40
2023-10-10T15:37:46.203Z,1.30
2023-10-10T15:40:14.641Z,1.20
2023-10-10T15:42:41.998Z,1.60
2023-10-10T15:45:09.593Z,1.20
2023-10-10T15:47:37.018Z,1.30
2023-10-10T15:50:05.987Z,1.50
2023-10-10T15:52:35.056Z,1.10
2023-10-10T15:55:06.939Z,1.00
2023-10-10T15:57:37.100Z,1.10
2023-10-10T16:00:11.886Z,1.10
2023-10-10T16:02:41.335Z,1.50
2023-10-10T16:05:09.369Z,1.10
2023-10-10T16:07:36.721Z,1.40
2023-10-10T16:10:04.394Z,1.00
2023-10-10T16:12:31.731Z,1.60
2023-10-10T16:15:01.543Z,1.20
2023-10-10T16:17:30.074Z,2.00
2023-10-10T16:19:59.673Z,1.70
2023-10-10T16:22:29.097Z,1.40
2023-10-10T16:24:56.596Z,1.30
2023-10-10T16:27:24.097Z,1.80
2023-10-10T16:29:56.822Z,1.60
2023-10-10T16:32:24.521Z,1.80
2023-10-10T16:34:53.539Z,1.70
2023-10-10T16:37:22.459Z,2.00
2023-10-10T16:39:51.530Z,2.60
2023-10-10T16:42:24.960Z,2.40
2023-10-10T16:47:23.214Z,2.50
2023-10-10T16:49:51.467Z,2.90
2023-10-10T16:52:26.782Z,2.30
2023-10-10T16:54:54.542Z,2.00
2023-10-10T16:57:25.748Z,2.30
2023-10-10T16:59:57.650Z,2.20
2023-10-10T17:02:30.174Z,2.30
2023-10-10T17:05:01.980Z,2.70
2023-10-10T17:07:29.810Z,2.40
2023-10-10T17:09:58.173Z,2.40
2023-10-10T17:12:25.715Z,2.60
2023-10-10T17:14:53.214Z,3.00
2023-10-10T17:17:20.624Z,2.50
2023-10-10T17:19:48.226Z,2.70
2023-10-10T17:22:19.859Z,2.70
2023-10-10T17:24:48.489Z,2.20
2023-10-10T17:27:15.929Z,2.90
2023-10-10T17:29:43.466Z,2.90
2023-10-10T17:32:10.969Z,2.80
2023-10-10T17:34:42.163Z,2.90
2023-10-10T17:37:12.686Z,3.00
2023-10-10T17:39:40.257Z,3.40
2023-10-10T17:42:08.092Z,2.20
2023-10-10T17:44:39.542Z,2.60
2023-10-10T17:47:07.537Z,2.90
2023-10-10T17:49:36.279Z,2.90
2023-10-10T17:52:04.182Z,2.70
2023-10-10T17:54:31.803Z,3.00
2023-10-10T17:56:59.177Z,3.00
2023-10-10T17:59:26.674Z,3.10
2023-10-10T18:01:55.039Z,3.20
2023-10-10T18:04:25.092Z,3.00
2023-10-10T18:06:54.187Z,3.50
2023-10-10T18:09:21.740Z,3.50
2023-10-10T18:11:50.309Z,4.30
2023-10-10T18:14:18.834Z,3.80
2023-10-10T18:16:46.748Z,4.90
2023-10-10T18:19:19.516Z,4.10
2023-10-10T18:21:47.406Z,3.90
2023-10-10T18:24:15.113Z,4.00
2023-10-10T18:26:43.528Z,4.20
2023-10-10T18:29:11.077Z,4.00
2023-10-10T18:31:39.733Z,4.80
2023-10-10T18:34:08.182Z,5.60
2023-10-10T18:36:38.738Z,5.70
2023-10-10T18:39:13.930Z,4.20
2023-10-10T18:41:46.060Z,4.80
2023-10-10T18:44:17.052Z,4.10
2023-10-10T18:46:45.177Z,4.10
2023-10-10T18:49:14.518Z,4.70
2023-10-10T18:51:43.804Z,4.10
2023-10-10T18:54:13.680Z,4.30
2023-10-10T18:56:41.585Z,3.60
2023-10-10T18:59:09.325Z,4.00
2023-10-10T19:01:38.931Z,4.00
2023-10-10T19:04:08.777Z,3.80
2023-10-10T19:06:40.447Z,4.20
2023-10-10T19:09:12.852Z,4.20
2023-10-10T19:11:40.768Z,3.70
2023-10-10T19:14:15.427Z,4.20
2023-10-10T19:16:44.630Z,3.70
2023-10-10T19:19:12.079Z,4.00
2023-10-10T19:21:42.941Z,5.10
2023-10-10T19:24:11.307Z,5.30
2023-10-10T19:26:38.887Z,5.20
2023-10-10T19:29:08.638Z,6.20
2023-10-10T19:31:41.123Z,6.30
2023-10-10T19:34:11.493Z,6.00
2023-10-10T19:36:39.743Z,6.40
2023-10-10T19:39:11.716Z,7.30
2023-10-10T19:41:39.875Z,7.10
2023-10-10T19:44:07.531Z,6.90
2023-10-10T19:46:35.059Z,7.20
2023-10-10T19:49:02.525Z,7.50
2023-10-10T19:51:30.200Z,6.90
2023-10-10T19:54:00.412Z,6.90
2023-10-10T19:56:30.423Z,6.90
2023-10-10T19:58:58.373Z,6.90
2023-10-10T20:01:28.742Z,6.70
2023-10-10T20:03:57.043Z,6.40
2023-10-10T20:06:24.980Z,6.60
2023-10-10T20:08:55.478Z,7.20
2023-10-10T20:11:23.773Z,6.40
2023-10-10T20:13:52.930Z,6.00
2023-10-10T20:16:22.854Z,6.50
2023-10-10T20:18:56.213Z,6.40
2023-10-10T20:21:25.584Z,6.40
2023-10-10T20:23:53.115Z,6.40
2023-10-10T20:26:20.887Z,6.80
2023-10-10T20:28:51.646Z,6.60
2023-10-10T20:31:19.844Z,6.80
2023-10-10T20:33:51.589Z,6.10
2023-10-10T20:36:19.333Z,6.10
2023-10-10T20:38:46.716Z,6.10
2023-10-10T20:41:15.072Z,6.60
2023-10-10T20:43:43.491Z,7.10
2023-10-10T20:46:13.157Z,6.30
2023-10-10T20:48:40.882Z,5.50
2023-10-10T20:51:12.819Z,5.40
2023-10-10T20:53:43.574Z,6.00
2023-10-10T20:56:11.979Z,6.60
2023-10-10T20:58:39.704Z,5.60
2023-10-10T21:01:13.883Z,5.90
2023-10-10T21:03:41.951Z,5.90
2023-10-10T21:06:10.006Z,6.30
2023-10-10T21:08:37.479Z,5.90
2023-10-10T21:11:09.870Z,5.50
2023-10-10T21:13:37.706Z,5.90
2023-10-10T21:16:17.489Z,5.80
2023-10-10T21:18:48.417Z,6.10
2023-10-10T21:21:16.098Z,5.40
2023-10-10T21:25:01.284Z,5.30
2023-10-10T21:27:29.055Z,5.00
2023-10-10T21:29:56.467Z,4.90
2023-10-10T21:32:23.861Z,4.50
2023-10-10T21:34:51.455Z,5.20
2023-10-10T21:37:18.819Z,4.80
2023-10-10T21:39:48.804Z,4.40
2023-10-10T21:42:16.243Z,5.10
2023-10-10T21:44:43.746Z,4.40
2023-10-10T21:47:15.770Z,4.50
2023-10-10T21:49:43.774Z,4.80
2023-10-10T21:52:11.306Z,4.40
2023-10-10T21:54:38.868Z,4.30
2023-10-10T21:57:06.248Z,4.90
2023-10-10T21:59:34.450Z,4.60
2023-10-10T22:02:02.713Z,3.60
2023-10-10T22:04:31.295Z,4.40
2023-10-10T22:06:58.733Z,3.80
2023-10-10T22:09:26.630Z,4.40
2023-10-10T22:11:53.982Z,4.10
2023-10-10T22:14:23.020Z,4.40
2023-10-10T22:16:51.997Z,4.80
2023-10-10T22:19:21.135Z,4.40
2023-10-10T22:21:48.547Z,5.10
2023-10-10T22:24:16.018Z,4.80
2023-10-10T22:26:43.493Z,3.70
2023-10-10T22:29:12.474Z,4.80
2023-10-10T22:31:43.321Z,3.90
2023-10-10T22:34:10.846Z,4.70
2023-10-10T22:36:38.321Z,4.90
2023-10-10T22:39:08.633Z,3.80
2023-10-10T22:41:36.027Z,4.40
2023-10-10T22:44:03.540Z,4.00
2023-10-10T22:46:31.496Z,4.20
2023-10-10T22:48:58.862Z,4.40
2023-10-10T22:51:26.157Z,4.20
2023-10-10T22:53:54.377Z,4.60
2023-10-10T22:56:23.235Z,3.80
2023-10-10T22:58:51.081Z,4.00
2023-10-10T23:01:18.601Z,3.90
2023-10-10T23:03:49.005Z,4.80
2023-10-10T23:06:16.676Z,3.50
2023-10-10T23:08:44.215Z,4.10
2023-10-10T23:11:14.346Z,3.80
2023-10-10T23:13:42.114Z,4.00
2023-10-10T23:16:16.213Z,4.70
2023-10-10T23:18:44.303Z,5.30
2023-10-10T23:21:12.774Z,4.60
2023-10-10T23:23:40.176Z,4.80
2023-10-10T23:26:07.595Z,4.80
2023-10-10T23:28:35.876Z,5.50
2023-10-10T23:31:04.385Z,5.40
2023-10-10T23:33:31.979Z,5.70
2023-10-10T23:35:59.555Z,6.10
2023-10-10T23:38:26.973Z,6.70
2023-10-10T23:40:57.891Z,6.20
2023-10-10T23:43:25.288Z,7.40
2023-10-10T23:45:58.106Z,8.40
2023-10-10T23:48:33.097Z,7.60
2023-10-10T23:51:01.200Z,7.60
2023-10-10T23:53:28.759Z,6.90
2023-10-10T23:56:00.226Z,7.90
2023-10-10T23:58:30.734Z,8.50
